createdAt,value
2022-08-26T00:02:12.988Z,15.17
2022-08-26T00:04:40.907Z,14.17
2022-08-26T00:07:08.915Z,17.10
2022-08-26T00:09:37.353Z,17.53
2022-08-26T00:12:09.410Z,16.43
2022-08-26T00:14:40.532Z,17.30
2022-08-26T00:17:08.725Z,15.40
2022-08-26T00:19:41.324Z,15.23
2022-08-26T00:22:09.395Z,15.30
2022-08-26T00:24:39.541Z,18.80
2022-08-26T00:27:15.742Z,20.50
2022-08-26T00:29:43.527Z,16.10
2022-08-26T00:32:12.374Z,15.27
2022-08-26T00:34:43.735Z,15.63
2022-08-26T00:37:15.644Z,16.53
2022-08-26T00:39:43.973Z,15.07
2022-08-26T00:42:13.703Z,22.20
2022-08-26T00:44:41.596Z,15.57
2022-08-26T00:47:18.648Z,14.30
2022-08-26T00:49:49.352Z,13.43
2022-08-26T00:52:20.627Z,19.17
2022-08-26T00:54:54.410Z,17.77
2022-08-26T00:57:23.969Z,18.20
2022-08-26T00:59:57.809Z,14.97
2022-08-26T01:02:25.884Z,14.60
2022-08-26T01:05:00.982Z,16.17
2022-08-26T01:07:32.704Z,13.60
2022-08-26T01:10:05.923Z,18.37
2022-08-26T01:12:40.728Z,23.90
2022-08-26T01:15:11.222Z,15.33
2022-08-26T01:17:39.918Z,18.83
2022-08-26T01:20:19.740Z,16.27
2022-08-26T01:22:54.295Z,13.20
2022-08-26T01:25:24.582Z,19.87
2022-08-26T01:27:54.106Z,15.20
2022-08-26T01:30:26.428Z,14.57
2022-08-26T01:32:57.175Z,13.83
2022-08-26T01:35:25.371Z,14.73
2022-08-26T01:37:57.237Z,19.80
2022-08-26T01:40:29.701Z,22.37
2022-08-26T01:42:57.679Z,21.17
2022-08-26T01:45:27.327Z,18.17
2022-08-26T01:47:59.086Z,12.17
2022-08-26T01:50:31.677Z,20.10
2022-08-26T01:53:03.909Z,16.67
2022-08-26T01:55:34.128Z,18.07
2022-08-26T01:58:05.824Z,17.93
2022-08-26T02:00:36.278Z,18.50
2022-08-26T02:03:20.438Z,16.90
2022-08-26T02:05:52.681Z,16.73
2022-08-26T02:08:26.439Z,20.60
2022-08-26T02:10:54.858Z,22.37
2022-08-26T02:13:24.233Z,15.63
2022-08-26T02:15:52.684Z,18.03
2022-08-26T02:18:20.905Z,19.33
2022-08-26T02:20:51.709Z,22.50
2022-08-26T02:23:19.942Z,20.10
2022-08-26T02:25:55.799Z,19.00
2022-08-26T02:28:26.770Z,15.13
2022-08-26T02:30:55.629Z,24.27
2022-08-26T02:33:23.676Z,20.17
2022-08-26T02:35:53.085Z,20.00
2022-08-26T02:38:21.032Z,16.33
2022-08-26T02:40:50.700Z,26.80
2022-08-26T02:43:18.740Z,18.07
2022-08-26T02:45:51.868Z,20.97
2022-08-26T02:48:22.243Z,20.87
2022-08-26T02:50:50.576Z,21.63
2022-08-26T02:53:24.921Z,18.70
2022-08-26T02:55:54.348Z,20.43
2022-08-26T02:58:22.550Z,17.10
2022-08-26T03:00:52.655Z,22.50
2022-08-26T03:03:23.439Z,23.07
2022-08-26T03:05:51.515Z,20.30
2022-08-26T03:08:19.261Z,19.07
2022-08-26T03:10:48.125Z,22.63
2022-08-26T03:13:18.634Z,21.07
2022-08-26T03:15:47.667Z,16.63
2022-08-26T03:18:16.181Z,19.00
2022-08-26T03:20:44.105Z,16.17
2022-08-26T03:23:12.551Z,16.13
2022-08-26T03:25:40.564Z,17.33
2022-08-26T03:28:09.691Z,20.40
2022-08-26T03:30:45.309Z,18.43
2022-08-26T03:33:14.432Z,23.07
2022-08-26T03:35:44.569Z,18.57
2022-08-26T03:38:12.872Z,27.17
2022-08-26T03:40:41.084Z,19.07
2022-08-26T03:43:10.750Z,17.60
2022-08-26T03:45:40.925Z,21.17
2022-08-26T03:48:11.300Z,17.70
2022-08-26T03:50:40.080Z,22.83
2022-08-26T03:53:12.700Z,23.83
2022-08-26T03:55:40.679Z,15.97
2022-08-26T03:58:08.722Z,21.57
2022-08-26T04:00:36.531Z,21.80
2022-08-26T04:03:05.887Z,22.60
2022-08-26T04:05:38.399Z,25.00
2022-08-26T04:08:06.573Z,19.57
2022-08-26T04:10:34.376Z,29.97
2022-08-26T04:13:02.473Z,28.00
2022-08-26T04:15:30.212Z,26.57
2022-08-26T04:17:58.237Z,21.47
2022-08-26T04:20:28.504Z,17.67
2022-08-26T04:22:56.265Z,29.07
2022-08-26T04:25:24.934Z,15.33
2022-08-26T04:27:52.845Z,30.00
2022-08-26T04:30:21.233Z,23.23
2022-08-26T04:32:49.373Z,20.83
2022-08-26T04:35:17.351Z,21.60
2022-08-26T04:37:46.622Z,25.97
2022-08-26T04:40:14.745Z,19.70
2022-08-26T04:42:43.034Z,16.57
2022-08-26T04:45:11.819Z,19.33
2022-08-26T04:47:39.785Z,20.37
2022-08-26T04:50:09.075Z,21.50
2022-08-26T04:52:38.836Z,24.93
2022-08-26T04:55:08.788Z,21.10
2022-08-26T04:57:36.684Z,19.33
2022-08-26T05:00:06.061Z,14.80
2022-08-26T05:02:34.426Z,25.83
2022-08-26T05:05:02.444Z,18.33
2022-08-26T05:07:31.203Z,19.20
2022-08-26T05:10:00.208Z,30.37
2022-08-26T05:12:30.534Z,25.67
2022-08-26T05:14:58.318Z,28.53
2022-08-26T05:17:27.231Z,20.40
2022-08-26T05:19:55.522Z,23.80
2022-08-26T05:22:23.302Z,29.77
2022-08-26T05:24:50.962Z,27.03
2022-08-26T05:27:19.483Z,29.53
2022-08-26T05:29:54.479Z,16.90
2022-08-26T05:32:22.488Z,25.27
2022-08-26T05:34:55.382Z,19.80
2022-08-26T05:37:23.276Z,24.10
2022-08-26T05:39:51.538Z,21.80
2022-08-26T05:42:19.912Z,22.67
2022-08-26T05:44:55.455Z,21.33
2022-08-26T05:47:24.167Z,24.00
2022-08-26T05:49:52.289Z,24.00
2022-08-26T05:52:21.329Z,22.90
2022-08-26T05:54:55.372Z,20.77
2022-08-26T05:57:23.281Z,24.83
2022-08-26T05:59:52.729Z,29.37
2022-08-26T06:02:20.547Z,25.60
2022-08-26T06:04:48.440Z,18.50
2022-08-26T06:07:17.122Z,20.47
2022-08-26T06:09:46.287Z,20.80
2022-08-26T06:12:14.171Z,24.47
2022-08-26T06:14:42.930Z,19.80
2022-08-26T06:17:12.073Z,25.23
2022-08-26T06:19:41.458Z,28.83
2022-08-26T06:22:29.299Z,22.33
2022-08-26T06:25:14.388Z,19.43
2022-08-26T06:27:42.195Z,23.97
2022-08-26T06:30:11.197Z,23.23
2022-08-26T06:32:41.643Z,21.07
2022-08-26T06:35:11.881Z,17.50
2022-08-26T06:37:40.725Z,20.93
2022-08-26T06:40:09.935Z,31.83
2022-08-26T06:42:39.420Z,27.43
2022-08-26T06:45:08.596Z,21.00
2022-08-26T06:47:36.658Z,20.37
2022-08-26T06:50:06.309Z,32.13
2022-08-26T06:52:34.083Z,19.43
2022-08-26T06:55:02.456Z,28.63
2022-08-26T06:57:32.887Z,21.77
2022-08-26T07:00:02.932Z,15.70
2022-08-26T07:02:31.961Z,24.47
2022-08-26T07:04:59.777Z,24.70
2022-08-26T07:07:29.508Z,25.07
2022-08-26T07:09:57.783Z,17.83
2022-08-26T07:12:25.886Z,23.63
2022-08-26T07:14:53.732Z,28.33
2022-08-26T07:17:21.942Z,23.30
2022-08-26T07:19:53.863Z,20.97
2022-08-26T07:22:21.822Z,16.93
2022-08-26T07:24:51.048Z,21.17
2022-08-26T07:27:19.017Z,25.10
2022-08-26T07:29:46.952Z,19.03
2022-08-26T07:32:17.045Z,21.40
2022-08-26T07:34:46.460Z,22.00
2022-08-26T07:37:14.984Z,28.30
2022-08-26T07:39:43.444Z,26.83
2022-08-26T07:42:14.982Z,24.27
2022-08-26T07:44:43.195Z,25.97
2022-08-26T07:47:25.212Z,24.00
2022-08-26T07:49:54.743Z,24.80
2022-08-26T07:52:26.347Z,18.23
2022-08-26T07:54:55.156Z,21.43
2022-08-26T07:57:24.587Z,19.97
2022-08-26T07:59:54.969Z,26.23
2022-08-26T08:02:23.959Z,20.17
2022-08-26T08:04:52.384Z,19.83
2022-08-26T08:07:20.577Z,19.20
2022-08-26T08:09:49.619Z,25.60
2022-08-26T08:12:17.694Z,21.60
2022-08-26T08:14:47.238Z,15.73
2022-08-26T08:17:16.987Z,15.17
2022-08-26T08:19:44.791Z,18.57
2022-08-26T08:22:17.774Z,24.60
2022-08-26T08:24:50.044Z,16.93
2022-08-26T08:27:23.669Z,16.30
2022-08-26T08:29:54.415Z,20.10
2022-08-26T08:32:23.589Z,15.03
2022-08-26T08:34:51.638Z,21.87
2022-08-26T08:37:19.798Z,21.70
2022-08-26T08:39:49.000Z,24.33
2022-08-26T08:42:37.914Z,18.53
2022-08-26T08:45:11.529Z,16.37
2022-08-26T08:47:43.121Z,19.77
2022-08-26T08:50:21.433Z,25.60
2022-08-26T08:52:57.403Z,21.00
2022-08-26T08:55:28.490Z,18.20
2022-08-26T08:58:03.600Z,22.80
2022-08-26T09:00:40.098Z,23.67
2022-08-26T09:03:18.105Z,21.70
2022-08-26T09:05:51.392Z,20.20
2022-08-26T09:08:23.849Z,18.93
2022-08-26T09:10:55.311Z,26.20
2022-08-26T09:13:27.174Z,26.80
2022-08-26T09:16:04.341Z,19.43
2022-08-26T09:19:00.390Z,19.13
2022-08-26T09:21:29.856Z,24.13
2022-08-26T09:23:58.118Z,17.90
2022-08-26T09:26:30.827Z,21.73
2022-08-26T09:29:02.182Z,19.60
2022-08-26T09:31:34.197Z,23.10
2022-08-26T09:34:17.570Z,23.27
2022-08-26T09:36:48.489Z,20.17
2022-08-26T09:39:29.800Z,21.00
2022-08-26T09:42:05.347Z,18.00
2022-08-26T09:44:35.595Z,15.57
2022-08-26T09:47:07.671Z,17.50
2022-08-26T09:49:37.948Z,23.87
2022-08-26T09:52:21.893Z,27.25
2022-08-26T09:55:02.421Z,25.20
2022-08-26T09:57:33.195Z,30.93
2022-08-26T10:00:02.537Z,19.05
2022-08-26T10:02:47.713Z,14.38
2022-08-26T10:05:28.225Z,23.20
2022-08-26T10:07:59.680Z,22.95
2022-08-26T10:10:33.112Z,26.33
2022-08-26T10:13:07.171Z,28.97
2022-08-26T10:15:48.730Z,19.33
2022-08-26T10:18:23.703Z,21.85
2022-08-26T10:20:57.832Z,25.50
2022-08-26T10:23:28.786Z,22.73
2022-08-26T10:26:03.968Z,19.97
2022-08-26T10:28:38.213Z,28.92
2022-08-26T10:31:14.784Z,21.53
2022-08-26T10:33:45.323Z,24.17
2022-08-26T10:36:36.423Z,23.42
2022-08-26T10:39:20.002Z,24.33
2022-08-26T10:41:52.503Z,27.75
2022-08-26T10:44:21.914Z,19.90
2022-08-26T10:46:56.300Z,23.75
2022-08-26T10:49:25.480Z,20.30
2022-08-26T10:52:03.749Z,25.05
2022-08-26T10:54:44.425Z,28.20
2022-08-26T10:57:18.546Z,20.90
2022-08-26T10:59:54.213Z,22.13
2022-08-26T11:02:29.524Z,18.63
2022-08-26T11:05:01.899Z,26.35
2022-08-26T11:07:35.042Z,17.75
2022-08-26T11:10:05.114Z,23.38
2022-08-26T11:12:58.269Z,17.10
2022-08-26T11:16:11.309Z,19.88
2022-08-26T11:18:48.697Z,15.80
2022-08-26T11:22:05.068Z,23.52
2022-08-26T11:24:48.231Z,19.08
2022-08-26T11:27:53.965Z,23.67
2022-08-26T11:30:43.984Z,18.27
2022-08-26T11:33:32.069Z,28.73
2022-08-26T11:35:59.895Z,25.55
2022-08-26T11:38:43.894Z,21.42
2022-08-26T11:41:18.560Z,28.40
2022-08-26T11:43:49.325Z,28.45
2022-08-26T11:46:25.381Z,23.02
2022-08-26T11:49:01.634Z,32.60
2022-08-26T11:51:31.854Z,30.92
2022-08-26T11:54:16.555Z,25.98
2022-08-26T11:56:47.623Z,24.05
2022-08-26T11:59:20.842Z,31.80
2022-08-26T12:01:53.210Z,31.33
2022-08-26T12:04:28.666Z,32.73
2022-08-26T12:06:58.395Z,37.77
2022-08-26T12:09:30.762Z,32.60
2022-08-26T12:12:12.942Z,22.50
2022-08-26T12:14:41.130Z,22.20
2022-08-26T12:17:13.480Z,25.43
2022-08-26T12:19:41.314Z,11.70
2022-08-26T12:22:17.996Z,18.27
2022-08-26T12:24:53.372Z,10.20
2022-08-26T12:27:24.351Z,13.13
2022-08-26T12:30:04.017Z,11.10
2022-08-26T12:32:36.153Z,9.13
2022-08-26T12:37:38.463Z,16.80
2022-08-26T12:40:34.434Z,13.87
2022-08-26T12:43:04.637Z,15.80
2022-08-26T12:45:34.909Z,13.23
2022-08-26T12:48:07.751Z,13.53
2022-08-26T12:50:38.506Z,10.80
2022-08-26T12:53:15.668Z,18.57
2022-08-26T12:55:47.647Z,14.97
2022-08-26T12:58:25.622Z,16.80
2022-08-26T13:00:56.017Z,14.13
2022-08-26T13:03:43.252Z,11.60
2022-08-26T13:06:16.013Z,15.50
2022-08-26T13:08:45.439Z,13.07
2022-08-26T13:11:19.011Z,10.53
2022-08-26T13:13:47.615Z,12.07
2022-08-26T13:16:16.765Z,15.17
2022-08-26T13:18:44.582Z,17.37
2022-08-26T13:21:17.815Z,15.83
2022-08-26T13:23:45.851Z,16.47
2022-08-26T13:26:15.824Z,14.77
2022-08-26T13:28:43.664Z,15.37
2022-08-26T13:31:13.637Z,14.30
2022-08-26T13:33:41.789Z,13.07
2022-08-26T13:36:09.899Z,15.53
2022-08-26T13:38:37.949Z,14.03
2022-08-26T13:41:06.936Z,10.77
2022-08-26T13:43:36.899Z,12.77
2022-08-26T13:46:05.428Z,12.70
2022-08-26T13:48:35.016Z,11.00
2022-08-26T13:51:08.090Z,11.47
2022-08-26T13:53:36.727Z,10.17
2022-08-26T13:56:08.009Z,11.83
2022-08-26T13:58:39.649Z,11.00
2022-08-26T14:01:07.797Z,13.00
2022-08-26T14:03:35.895Z,12.27
2022-08-26T14:06:04.219Z,12.20
2022-08-26T14:08:32.668Z,13.00
2022-08-26T14:11:00.489Z,8.60
2022-08-26T14:13:28.648Z,10.67
2022-08-26T14:15:59.652Z,11.23
2022-08-26T14:18:32.124Z,9.77
2022-08-26T14:21:00.438Z,8.90
2022-08-26T14:23:28.600Z,11.37
2022-08-26T14:25:56.514Z,12.60
2022-08-26T14:30:59.399Z,11.87
2022-08-26T14:33:32.479Z,12.03
2022-08-26T14:36:14.495Z,10.50
2022-08-26T14:38:42.478Z,8.90
2022-08-26T14:41:10.874Z,11.87
2022-08-26T14:43:42.742Z,10.37
2022-08-26T14:46:12.472Z,13.53
2022-08-26T14:48:40.295Z,7.50
2022-08-26T14:51:08.223Z,9.60
2022-08-26T14:53:53.316Z,12.37
2022-08-26T14:56:21.424Z,11.23
2022-08-26T14:58:49.652Z,12.80
2022-08-26T15:01:18.806Z,11.40
2022-08-26T15:03:46.625Z,12.97
2022-08-26T15:06:16.484Z,10.80
2022-08-26T15:08:44.310Z,9.57
2022-08-26T15:11:12.159Z,10.67
2022-08-26T15:13:40.090Z,10.40
2022-08-26T15:16:08.401Z,10.60
2022-08-26T15:18:37.647Z,10.30
2022-08-26T15:21:07.428Z,10.57
2022-08-26T15:23:35.360Z,9.90
2022-08-26T15:26:04.187Z,10.83
2022-08-26T15:28:31.952Z,9.77
2022-08-26T15:31:00.587Z,11.43
2022-08-26T15:33:28.689Z,10.67
2022-08-26T15:36:01.880Z,10.97
2022-08-26T15:38:31.278Z,13.10
2022-08-26T15:41:02.949Z,18.43
2022-08-26T15:43:31.216Z,45.93
2022-08-26T15:45:59.327Z,12.87
2022-08-26T15:48:27.584Z,12.00
2022-08-26T15:50:57.726Z,8.47
2022-08-26T15:53:28.177Z,12.87
2022-08-26T15:55:56.958Z,14.97
2022-08-26T15:58:26.962Z,11.60
2022-08-26T16:00:55.703Z,10.63
2022-08-26T16:03:24.062Z,10.97
2022-08-26T16:05:52.194Z,11.87
2022-08-26T16:08:20.205Z,8.57
2022-08-26T16:10:51.326Z,10.80
2022-08-26T16:13:20.277Z,15.77
2022-08-26T16:15:48.744Z,10.13
2022-08-26T16:18:17.354Z,22.80
2022-08-26T16:21:08.788Z,10.83
2022-08-26T16:23:38.503Z,12.27
2022-08-26T16:26:11.705Z,11.27
2022-08-26T16:28:40.032Z,11.33
2022-08-26T16:31:09.657Z,11.40
2022-08-26T16:33:37.943Z,10.67
2022-08-26T16:36:06.717Z,14.87
2022-08-26T16:38:35.003Z,14.27
2022-08-26T16:41:03.322Z,15.50
2022-08-26T16:43:32.970Z,11.40
2022-08-26T16:46:01.091Z,12.17
2022-08-26T16:48:29.133Z,11.07
2022-08-26T16:50:56.987Z,9.67
2022-08-26T16:53:25.236Z,28.13
2022-08-26T16:55:53.057Z,14.03
2022-08-26T16:58:22.334Z,23.27
2022-08-26T17:00:51.591Z,12.77
2022-08-26T17:03:19.524Z,14.20
2022-08-26T17:05:47.335Z,15.87
2022-08-26T17:08:27.496Z,12.10
2022-08-26T17:10:56.502Z,18.60
2022-08-26T17:13:34.590Z,12.10
2022-08-26T17:16:06.061Z,13.10
2022-08-26T17:18:34.695Z,12.87
2022-08-26T17:21:04.632Z,14.97
2022-08-26T17:23:33.082Z,19.63
2022-08-26T17:26:01.095Z,15.07
2022-08-26T17:28:28.927Z,17.27
2022-08-26T17:30:57.652Z,16.03
2022-08-26T17:33:27.624Z,15.83
2022-08-26T17:35:56.754Z,12.97
2022-08-26T17:38:25.080Z,16.80
2022-08-26T17:40:53.069Z,14.40
2022-08-26T17:43:21.035Z,16.00
2022-08-26T17:45:49.450Z,19.43
2022-08-26T17:48:17.318Z,11.63
2022-08-26T17:50:49.287Z,15.93
2022-08-26T17:53:18.666Z,13.33
2022-08-26T17:55:47.090Z,10.97
2022-08-26T17:58:15.184Z,13.50
2022-08-26T18:00:44.727Z,12.70
2022-08-26T18:03:12.479Z,19.57
2022-08-26T18:05:40.281Z,16.07
2022-08-26T18:08:09.735Z,30.53
2022-08-26T18:10:37.528Z,13.57
2022-08-26T18:13:05.449Z,14.67
2022-08-26T18:15:33.473Z,14.73
2022-08-26T18:18:01.356Z,14.87
2022-08-26T18:20:29.173Z,13.53
2022-08-26T18:22:56.997Z,16.87
2022-08-26T18:25:26.480Z,15.80
2022-08-26T18:27:54.375Z,16.63
2022-08-26T18:30:23.469Z,18.90
2022-08-26T18:32:52.274Z,18.57
2022-08-26T18:35:21.365Z,22.67
2022-08-26T18:37:49.575Z,18.13
2022-08-26T18:40:17.675Z,23.40
2022-08-26T18:42:47.147Z,20.40
2022-08-26T18:45:24.400Z,25.10
2022-08-26T18:47:52.698Z,21.80
2022-08-26T18:50:20.816Z,18.97
2022-08-26T18:52:48.736Z,15.77
2022-08-26T18:55:18.019Z,18.27
2022-08-26T18:57:47.510Z,17.27
2022-08-26T19:00:16.001Z,16.87
2022-08-26T19:02:44.011Z,16.50
2022-08-26T19:05:29.320Z,19.73
2022-08-26T19:07:57.181Z,15.17
2022-08-26T19:10:25.587Z,18.20
2022-08-26T19:12:57.423Z,14.07
2022-08-26T19:15:28.569Z,20.53
2022-08-26T19:17:56.934Z,18.07
2022-08-26T19:20:25.007Z,14.73
2022-08-26T19:22:52.833Z,13.87
2022-08-26T19:25:20.801Z,16.60
2022-08-26T19:27:48.506Z,14.70
2022-08-26T19:30:17.687Z,18.93
2022-08-26T19:32:45.974Z,13.90
2022-08-26T19:35:23.047Z,16.33
2022-08-26T19:37:50.962Z,14.37
2022-08-26T19:40:19.041Z,15.50
2022-08-26T19:42:48.925Z,11.33
2022-08-26T19:45:25.114Z,15.80
2022-08-26T19:47:54.058Z,13.07
2022-08-26T19:50:22.772Z,18.40
2022-08-26T19:52:50.763Z,18.10
2022-08-26T19:55:20.877Z,16.97
2022-08-26T19:57:48.759Z,13.47
2022-08-26T20:00:20.984Z,17.83
2022-08-26T20:02:49.314Z,17.40
2022-08-26T20:05:19.177Z,17.00
2022-08-26T20:07:47.332Z,18.67
2022-08-26T20:10:16.679Z,16.67
2022-08-26T20:12:45.013Z,17.53
2022-08-26T20:15:13.785Z,15.87
2022-08-26T20:17:42.869Z,17.40
2022-08-26T20:20:33.659Z,18.17
2022-08-26T20:23:03.611Z,16.17
2022-08-26T20:25:32.532Z,19.30
2022-08-26T20:28:00.528Z,18.37
2022-08-26T20:30:28.647Z,16.50
2022-08-26T20:32:57.801Z,21.67
2022-08-26T20:35:25.727Z,17.13
2022-08-26T20:37:53.685Z,14.17
2022-08-26T20:40:22.569Z,14.07
2022-08-26T20:42:50.447Z,15.80
2022-08-26T20:45:18.299Z,17.17
2022-08-26T20:47:46.216Z,38.67
2022-08-26T20:50:15.511Z,15.80
2022-08-26T20:52:43.340Z,18.87
2022-08-26T20:55:11.443Z,15.33
2022-08-26T20:57:39.532Z,13.97
2022-08-26T21:00:08.492Z,13.90
2022-08-26T21:02:37.025Z,12.83
2022-08-26T21:05:05.668Z,21.93
2022-08-26T21:07:34.942Z,16.77
2022-08-26T21:10:04.070Z,18.33
2022-08-26T21:12:32.196Z,15.77
2022-08-26T21:15:00.574Z,16.03
2022-08-26T21:17:28.523Z,14.33
2022-08-26T21:19:56.583Z,11.97
2022-08-26T21:22:25.052Z,13.03
2022-08-26T21:24:54.226Z,13.67
2022-08-26T21:27:28.549Z,13.87
2022-08-26T21:29:56.665Z,11.50
2022-08-26T21:32:24.789Z,13.63
2022-08-26T21:34:55.639Z,10.83
2022-08-26T21:37:24.871Z,10.40
2022-08-26T21:39:56.069Z,11.73
2022-08-26T21:42:25.315Z,10.50
2022-08-26T21:44:57.529Z,15.97
2022-08-26T21:47:25.758Z,13.03
2022-08-26T21:49:54.162Z,14.50
2022-08-26T21:52:22.323Z,10.80
2022-08-26T21:54:50.191Z,12.07
2022-08-26T21:57:19.502Z,14.73
2022-08-26T21:59:47.487Z,14.57
2022-08-26T22:02:15.770Z,12.80
2022-08-26T22:04:46.912Z,14.87
2022-08-26T22:07:17.452Z,10.87
2022-08-26T22:09:45.558Z,14.37
2022-08-26T22:12:18.103Z,16.07
2022-08-26T22:14:47.886Z,15.83
2022-08-26T22:17:17.058Z,13.00
2022-08-26T22:19:46.147Z,12.43
2022-08-26T22:22:15.744Z,16.37
2022-08-26T22:24:44.318Z,14.20
2022-08-26T22:27:13.016Z,12.87
2022-08-26T22:29:41.364Z,12.93
2022-08-26T22:32:11.202Z,11.87
2022-08-26T22:34:39.041Z,11.63
2022-08-26T22:37:07.208Z,11.50
2022-08-26T22:39:35.096Z,13.37
2022-08-26T22:42:05.419Z,15.20
2022-08-26T22:44:36.397Z,12.47
2022-08-26T22:47:04.507Z,12.40
2022-08-26T22:49:34.026Z,13.07
2022-08-26T22:52:01.956Z,18.07
2022-08-26T22:54:32.888Z,12.37
2022-08-26T22:57:00.903Z,13.47
2022-08-26T22:59:28.710Z,12.00
2022-08-26T23:01:57.284Z,12.80
2022-08-26T23:04:25.455Z,15.30
2022-08-26T23:06:54.862Z,13.27
2022-08-26T23:09:22.713Z,16.23
2022-08-26T23:11:50.493Z,12.17
2022-08-26T23:14:18.930Z,13.53
2022-08-26T23:16:47.506Z,12.43
2022-08-26T23:19:17.048Z,14.40
2022-08-26T23:21:45.577Z,10.70
2022-08-26T23:24:15.712Z,13.53
2022-08-26T23:26:43.520Z,12.70
2022-08-26T23:29:13.189Z,14.93
2022-08-26T23:31:42.918Z,13.33
2022-08-26T23:34:29.397Z,16.63
2022-08-26T23:36:58.493Z,15.17
2022-08-26T23:39:27.798Z,12.80
2022-08-26T23:41:56.816Z,16.07
2022-08-26T23:44:26.455Z,13.40
2022-08-26T23:46:54.437Z,11.83
2022-08-26T23:49:22.442Z,16.10
2022-08-26T23:52:07.563Z,13.87
2022-08-26T23:54:36.994Z,19.90
2022-08-26T23:57:05.665Z,14.00
2022-08-26T23:59:33.932Z,15.17
